首页
METAR-TAF:

METAR-TAF

机场 :

凡城, 土耳其

纬度: 38-27N, 经度: 043-19E, 海拔: 1667米

当前天气观测

该预报发布于1小时和23分钟前的15:50 UTC
风速4节,风向东南
温度 2°C
湿度 69%
气压 1025 hPa
能见度10公里或以上
少量云层高于3500英尺
散云层高于18000英尺

METAR: LTCI 281550Z 14004KT 9999 FEW035 SCT180 02/M03 Q1025 NOSIG

时间: 20:13 (17:13 UTC)

预报

该预报发布于3小时和33分钟前的13:40 UTC
预报有效从28日的 15点(UTC)到 28日的 24点(UTC)
风速7节,风向西南
能见度10公里或以上
少量云层高于3500英尺
散云层高于18000英尺
成为
从 28日的 15点(UTC)到 28日的 16点(UTC)
风速10节,风向东南

TAF: LTCI 281340Z 2815/2824 22007KT 9999 FEW035 SCT180 BECMG 2815/2816 13010KT

超过4000个机场的气象观测和天气预报(METAR&TAF报告)。

可查询的气象台以黄色和红色小点在地图上表示。

将鼠标移到小点上方,可查看气象台名称。

然后点击查看天气观测和预报。

如需切换地图:点击带黑十字的绿色按钮放大地图;点击带横线的绿色按钮缩小地图;或者点击绿色箭头查看邻近地区的地图。


METAR-TAF: